Westward — WDD4133 — position and weather

sailwx.info

Track history (hours):
 
Tides and Currents Weather Stations Pressure Air Temp Water Temp Dewpoint Dewpoint Depression Visibility Wind Speed Wind Dir Waves Ship Positions

Westward

Owner: Pacific Catalyst Expeditons, l.l.c., Seattle, WA. More information available from US FCC via Universal Licensing System and Coast Guard Vessel Documentation Center.

Last reported at 2018-May-27 02:12 UTC. Time now 2018-Jun-24 04:51 UTC.
Position N 58°13' W 135°37'.
Warning: this ship's position is 28 days out of date.

Length 26 m; draft 3.5 m.

Type: Pleasure craft. MMSI: 367583000.

Date/timePositionNaut miles runAvg speedWind from/ knotsBaromVisibWave heightAir tempDewpointWater temp
2018-May-27 02:12N 58°13' W 135°37'3 6.6
2018-May-27 01:48N 58°15' W 135°41'3 6.2
2018-May-27 01:22N 58°17' W 135°45'2 5.4
2018-May-27 01:00N 58°18' W 135°48'3 6.1
2018-May-27 00:30N 58°16' W 135°54'3 5.0
2018-May-27 00:00N 58°16' W 135°58'6 0.1
2018-May-24 23:22N 58°20' W 136°07'3 9.4
2018-May-24 23:00N 58°21' W 136°01'5 9.1
2018-May-24 22:30N 58°25' W 136°01'510.8
2018-May-24 22:00N 58°31' W 136°03'4 8.4
2018-May-24 21:30N 58°35' W 136°03'4 7.1
2018-May-24 21:00N 58°38' W 136°02'1 2.6
2018-May-24 20:30N 58°38' W 136°05'4 7.8
2018-May-24 19:58N 58°36' W 136°11'1 2.8
2018-May-24 19:29N 58°35' W 136°13'0 0.1
2018-May-24 19:00N 58°35' W 136°13'0 0.1
2018-May-24 18:30N 58°35' W 136°13'0 0.0
2018-May-24 18:00N 58°35' W 136°13'0 0.0
2018-May-24 17:28N 58°35' W 136°13'0 1.1
2018-May-24 17:00N 58°35' W 136°13'1 1.5
2018-May-24 16:29N 58°36' W 136°13'0 0.0
2018-May-24 15:57N 58°36' W 136°13'1 2.1
2018-May-24 15:30N 58°36' W 136°12'3 5.2
2018-May-24 15:00N 58°38' W 136°10'3 6.6
2018-May-24 14:30N 58°41' W 136°10'3 6.6
2018-May-24 14:00N 58°45' W 136°10'1 1.4
2018-May-24 13:17N 58°46' W 136°10'0 0.0
2018-May-24 09:00N 58°46' W 136°10'0 0.0
2018-May-24 08:27N 58°46' W 136°10'0 0.0
2018-May-24 07:59N 58°46' W 136°10'0 0.0
2018-May-24 07:30N 58°46' W 136°10'0 0.0
2018-May-24 07:00N 58°46' W 136°10'0 0.0
2018-May-24 06:29N 58°46' W 136°10'0 0.0
2018-May-24 06:00N 58°46' W 136°10'0 0.0
2018-May-24 05:30N 58°46' W 136°10'0 0.0
2018-May-24 04:59N 58°46' W 136°10'0 0.0
2018-May-24 04:30N 58°46' W 136°10'0 0.0
2018-May-24 03:59N 58°46' W 136°10'0 0.0
2018-May-24 03:24N 58°46' W 136°10'1 2.3
2018-May-24 02:56N 58°45' W 136°08'2 0.2
2018-May-23 15:51N 58°47' W 136°05'3 7.4
2018-May-23 15:28N 58°44' W 136°01'2 3.8
2018-May-23 14:59N 58°43' W 135°59'0 0.1
2018-May-23 14:30N 58°43' W 135°59'0 0.0
2018-May-23 14:00N 58°43' W 135°59'0 0.0
2018-May-23 13:29N 58°43' W 135°59'0 0.0
2018-May-23 13:00N 58°43' W 135°59'0 0.0
2018-May-23 12:30N 58°43' W 135°59'0 0.0
2018-May-23 12:00N 58°43' W 135°59'0 0.0
2018-May-23 11:30N 58°43' W 135°59'0 0.0
2018-May-23 11:00N 58°43' W 135°59'0 0.0
2018-May-23 10:30N 58°43' W 135°59'0 0.0
2018-May-23 10:00N 58°43' W 135°59'0 0.0
2018-May-23 09:30N 58°43' W 135°59'0 0.0
2018-May-23 09:00N 58°43' W 135°59'0 0.0
2018-May-23 08:30N 58°43' W 135°59'0 0.0
2018-May-23 08:00N 58°43' W 135°59'0 0.0
2018-May-23 07:30N 58°43' W 135°59'0 0.0
2018-May-23 07:00N 58°43' W 135°59'0 0.0
2018-May-23 06:30N 58°43' W 135°59'0 0.0
2018-May-23 06:00N 58°43' W 135°59'0 0.0
2018-May-23 05:30N 58°43' W 135°59'0 0.0
2018-May-23 05:00N 58°43' W 135°59'0 0.0
2018-May-23 04:30N 58°43' W 135°59'0 0.0
2018-May-23 04:00N 58°43' W 135°59'0 0.0
2018-May-23 03:30N 58°43' W 135°59'0 0.0
2018-May-23 03:00N 58°43' W 135°59'0 0.0
2018-May-23 02:30N 58°43' W 135°59'0 0.0
2018-May-23 02:00N 58°43' W 135°59'1 1.3
2018-May-23 01:30N 58°44' W 135°60'3 6.2
2018-May-23 01:00N 58°44' W 136°05'4 8.4
2018-May-23 00:29N 58°45' W 136°14'5 0.2
2018-May-21 17:38N 58°41' W 136°18'2 7.1
2018-May-21 17:21N 58°39' W 136°15'2 7.4
2018-May-21 17:00N 58°37' W 136°12'1 2.9
2018-May-21 16:30N 58°36' W 136°13'1 1.1
2018-May-21 15:59N 58°36' W 136°13'0 0.0
2018-May-21 15:30N 58°36' W 136°13'0 0.0
2018-May-21 15:00N 58°36' W 136°13'0 0.0
2018-May-21 14:30N 58°36' W 136°13'0 0.1
2018-May-21 14:00N 58°36' W 136°13'0 0.0
2018-May-21 13:29N 58°36' W 136°13'0 0.1
2018-May-21 13:00N 58°36' W 136°13'0 0.0
2018-May-21 12:30N 58°36' W 136°13'0 0.0
2018-May-21 12:00N 58°36' W 136°13'0 0.0
2018-May-21 11:31N 58°36' W 136°13'0 0.0
2018-May-21 11:00N 58°36' W 136°13'0 0.1
2018-May-21 10:30N 58°36' W 136°13'0 0.0
2018-May-21 10:00N 58°36' W 136°13'0 0.0
2018-May-21 09:30N 58°36' W 136°13'0 0.0
2018-May-21 09:00N 58°36' W 136°13'0 0.0
2018-May-21 08:30N 58°36' W 136°13'0 0.0
2018-May-21 08:00N 58°36' W 136°13'0 0.0
2018-May-21 07:31N 58°36' W 136°13'0 0.1
2018-May-21 07:00N 58°36' W 136°13'0 0.0
2018-May-21 06:29N 58°36' W 136°13'0 0.0
2018-May-21 06:01N 58°36' W 136°13'0 0.0
2018-May-21 05:30N 58°36' W 136°13'0 0.0
2018-May-21 05:00N 58°36' W 136°13'0 0.0
2018-May-21 04:30N 58°36' W 136°13'0 0.0
2018-May-21 04:01N 58°36' W 136°13'0 0.0
2018-May-21 03:30N 58°36' W 136°13'0 0.0
2018-May-21 03:00N 58°36' W 136°13'0 0.1
2018-May-21 02:30N 58°36' W 136°13'0 0.0
2018-May-21 02:00N 58°36' W 136°13'0 0.0
2018-May-21 01:30N 58°36' W 136°13'3 5.6
2018-May-21 01:00N 58°34' W 136°09'4 7.6
2018-May-21 00:30N 58°31' W 136°05'611.4
2018-May-21 00:00N 58°26' W 135°59'3 6.6
2018-May-20 23:30N 58°27' W 135°53'0 0.0
2018-May-20 23:00N 58°27' W 135°53'0 0.0
2018-May-20 22:30N 58°27' W 135°53'0 0.0
2018-May-20 22:00N 58°27' W 135°53'0 0.0
2018-May-20 21:30N 58°27' W 135°53'0 0.0
2018-May-20 21:00N 58°27' W 135°53'0 0.0
2018-May-20 20:30N 58°27' W 135°53'0 0.0
2018-May-20 20:00N 58°27' W 135°53'0 0.0
2018-May-20 19:30N 58°27' W 135°53'2 4.4
2018-May-20 19:00N 58°26' W 135°56'4 7.6
2018-May-20 18:30N 58°22' W 135°57'4 6.9
2018-May-20 18:00N 58°20' W 135°51'  
Track history (hours):
 
Tides and Currents Weather Stations Pressure Air Temp Water Temp Dewpoint Dewpoint Depression Visibility Wind Speed Wind Dir Waves Ship Positions

Westward

Owner: Pacific Catalyst Expeditons, l.l.c., Seattle, WA. More information available from US FCC via Universal Licensing System and Coast Guard Vessel Documentation Center.

Last reported at 2018-May-27 02:12 UTC. Time now 2018-Jun-24 04:51 UTC.
Position N 58°13' W 135°37'.
Warning: this ship's position is 28 days out of date.

Length 26 m; draft 3.5 m.

Type: Pleasure craft. MMSI: 367583000.

Date/timePositionNaut miles runAvg speedWind from/ knotsBaromVisibWave heightAir tempDewpointWater temp
2018-May-27 02:12N 58°13' W 135°37'3 6.6
2018-May-27 01:48N 58°15' W 135°41'3 6.2
2018-May-27 01:22N 58°17' W 135°45'2 5.4
2018-May-27 01:00N 58°18' W 135°48'3 6.1
2018-May-27 00:30N 58°16' W 135°54'3 5.0
2018-May-27 00:00N 58°16' W 135°58'6 0.1
2018-May-24 23:22N 58°20' W 136°07'3 9.4
2018-May-24 23:00N 58°21' W 136°01'5 9.1
2018-May-24 22:30N 58°25' W 136°01'510.8
2018-May-24 22:00N 58°31' W 136°03'4 8.4
2018-May-24 21:30N 58°35' W 136°03'4 7.1
2018-May-24 21:00N 58°38' W 136°02'1 2.6
2018-May-24 20:30N 58°38' W 136°05'4 7.8
2018-May-24 19:58N 58°36' W 136°11'1 2.8
2018-May-24 19:29N 58°35' W 136°13'0 0.1
2018-May-24 19:00N 58°35' W 136°13'0 0.1
2018-May-24 18:30N 58°35' W 136°13'0 0.0
2018-May-24 18:00N 58°35' W 136°13'0 0.0
2018-May-24 17:28N 58°35' W 136°13'0 1.1
2018-May-24 17:00N 58°35' W 136°13'1 1.5
2018-May-24 16:29N 58°36' W 136°13'0 0.0
2018-May-24 15:57N 58°36' W 136°13'1 2.1
2018-May-24 15:30N 58°36' W 136°12'3 5.2
2018-May-24 15:00N 58°38' W 136°10'3 6.6
2018-May-24 14:30N 58°41' W 136°10'3 6.6
2018-May-24 14:00N 58°45' W 136°10'1 1.4
2018-May-24 13:17N 58°46' W 136°10'0 0.0
2018-May-24 09:00N 58°46' W 136°10'0 0.0
2018-May-24 08:27N 58°46' W 136°10'0 0.0
2018-May-24 07:59N 58°46' W 136°10'0 0.0
2018-May-24 07:30N 58°46' W 136°10'0 0.0
2018-May-24 07:00N 58°46' W 136°10'0 0.0
2018-May-24 06:29N 58°46' W 136°10'0 0.0
2018-May-24 06:00N 58°46' W 136°10'0 0.0
2018-May-24 05:30N 58°46' W 136°10'0 0.0
2018-May-24 04:59N 58°46' W 136°10'0 0.0
2018-May-24 04:30N 58°46' W 136°10'0 0.0
2018-May-24 03:59N 58°46' W 136°10'0 0.0
2018-May-24 03:24N 58°46' W 136°10'1 2.3
2018-May-24 02:56N 58°45' W 136°08'2 0.2
2018-May-23 15:51N 58°47' W 136°05'3 7.4
2018-May-23 15:28N 58°44' W 136°01'2 3.8
2018-May-23 14:59N 58°43' W 135°59'0 0.1
2018-May-23 14:30N 58°43' W 135°59'0 0.0
2018-May-23 14:00N 58°43' W 135°59'0 0.0
2018-May-23 13:29N 58°43' W 135°59'0 0.0
2018-May-23 13:00N 58°43' W 135°59'0 0.0
2018-May-23 12:30N 58°43' W 135°59'0 0.0
2018-May-23 12:00N 58°43' W 135°59'0 0.0
2018-May-23 11:30N 58°43' W 135°59'0 0.0
2018-May-23 11:00N 58°43' W 135°59'0 0.0
2018-May-23 10:30N 58°43' W 135°59'0 0.0
2018-May-23 10:00N 58°43' W 135°59'0 0.0
2018-May-23 09:30N 58°43' W 135°59'0 0.0
2018-May-23 09:00N 58°43' W 135°59'0 0.0
2018-May-23 08:30N 58°43' W 135°59'0 0.0
2018-May-23 08:00N 58°43' W 135°59'0 0.0
2018-May-23 07:30N 58°43' W 135°59'0 0.0
2018-May-23 07:00N 58°43' W 135°59'0 0.0
2018-May-23 06:30N 58°43' W 135°59'0 0.0
2018-May-23 06:00N 58°43' W 135°59'0 0.0
2018-May-23 05:30N 58°43' W 135°59'0 0.0
2018-May-23 05:00N 58°43' W 135°59'0 0.0
2018-May-23 04:30N 58°43' W 135°59'0 0.0
2018-May-23 04:00N 58°43' W 135°59'0 0.0
2018-May-23 03:30N 58°43' W 135°59'0 0.0
2018-May-23 03:00N 58°43' W 135°59'0 0.0
2018-May-23 02:30N 58°43' W 135°59'0 0.0
2018-May-23 02:00N 58°43' W 135°59'1 1.3
2018-May-23 01:30N 58°44' W 135°60'3 6.2
2018-May-23 01:00N 58°44' W 136°05'4 8.4
2018-May-23 00:29N 58°45' W 136°14'5 0.2
2018-May-21 17:38N 58°41' W 136°18'2 7.1
2018-May-21 17:21N 58°39' W 136°15'2 7.4
2018-May-21 17:00N 58°37' W 136°12'1 2.9
2018-May-21 16:30N 58°36' W 136°13'1 1.1
2018-May-21 15:59N 58°36' W 136°13'0 0.0
2018-May-21 15:30N 58°36' W 136°13'0 0.0
2018-May-21 15:00N 58°36' W 136°13'0 0.0
2018-May-21 14:30N 58°36' W 136°13'0 0.1
2018-May-21 14:00N 58°36' W 136°13'0 0.0
2018-May-21 13:29N 58°36' W 136°13'0 0.1
2018-May-21 13:00N 58°36' W 136°13'0 0.0
2018-May-21 12:30N 58°36' W 136°13'0 0.0
2018-May-21 12:00N 58°36' W 136°13'0 0.0
2018-May-21 11:31N 58°36' W 136°13'0 0.0
2018-May-21 11:00N 58°36' W 136°13'0 0.1
2018-May-21 10:30N 58°36' W 136°13'0 0.0
2018-May-21 10:00N 58°36' W 136°13'0 0.0
2018-May-21 09:30N 58°36' W 136°13'0 0.0
2018-May-21 09:00N 58°36' W 136°13'0 0.0
2018-May-21 08:30N 58°36' W 136°13'0 0.0
2018-May-21 08:00N 58°36' W 136°13'0 0.0
2018-May-21 07:31N 58°36' W 136°13'0 0.1
2018-May-21 07:00N 58°36' W 136°13'0 0.0
2018-May-21 06:29N 58°36' W 136°13'0 0.0
2018-May-21 06:01N 58°36' W 136°13'0 0.0
2018-May-21 05:30N 58°36' W 136°13'0 0.0
2018-May-21 05:00N 58°36' W 136°13'0 0.0
2018-May-21 04:30N 58°36' W 136°13'0 0.0
2018-May-21 04:01N 58°36' W 136°13'0 0.0
2018-May-21 03:30N 58°36' W 136°13'0 0.0
2018-May-21 03:00N 58°36' W 136°13'0 0.1
2018-May-21 02:30N 58°36' W 136°13'0 0.0
2018-May-21 02:00N 58°36' W 136°13'0 0.0
2018-May-21 01:30N 58°36' W 136°13'3 5.6
2018-May-21 01:00N 58°34' W 136°09'4 7.6
2018-May-21 00:30N 58°31' W 136°05'611.4
2018-May-21 00:00N 58°26' W 135°59'3 6.6
2018-May-20 23:30N 58°27' W 135°53'0 0.0
2018-May-20 23:00N 58°27' W 135°53'0 0.0
2018-May-20 22:30N 58°27' W 135°53'0 0.0
2018-May-20 22:00N 58°27' W 135°53'0 0.0
2018-May-20 21:30N 58°27' W 135°53'0 0.0
2018-May-20 21:00N 58°27' W 135°53'0 0.0
2018-May-20 20:30N 58°27' W 135°53'0 0.0
2018-May-20 20:00N 58°27' W 135°53'0 0.0
2018-May-20 19:30N 58°27' W 135°53'2 4.4
2018-May-20 19:00N 58°26' W 135°56'4 7.6
2018-May-20 18:30N 58°22' W 135°57'4 6.9
2018-May-20 18:00N 58°20' W 135°51'  

Dump ship's entire track history